Time,TemperatureF,DewpointF,PressureIn,WindDirection,WindDirectionDegrees,WindSpeedMPH,WindSpeedGustMPH,Humidity,HourlyPrecipIn,Conditions,Clouds,dailyrainin,SoftwareType,DateUTC
2013-10-04 00:18:00,45.1,44.8,30.31,South,180,0.0,-999.0,99,-99.99,,,0.00,Acu-Link.com,2013-10-04 07:18:00,
2013-10-04 00:43:00,45.1,44.8,30.31,South,180,0.0,-999.0,99,-99.99,,,0.00,Acu-Link.com,2013-10-04 07:43:00,
2013-10-04 01:00:00,45.1,44.8,30.31,South,180,0.0,-999.0,99,-99.99,,,0.00,Acu-Link.com,2013-10-04 08:00:00,
2013-10-04 01:16:00,45.0,44.7,30.31,South,180,0.0,-999.0,99,-99.99,,,0.00,Acu-Link.com,2013-10-04 08:16:00,
2013-10-04 01:31:00,44.8,44.5,30.31,South,180,0.0,-999.0,99,-99.99,,,0.00,Acu-Link.com,2013-10-04 08:31:00,
2013-10-04 01:46:00,44.4,44.1,30.32,South,180,0.0,-999.0,99,-99.99,,,0.00,Acu-Link.com,2013-10-04 08:46:00,
2013-10-04 02:01:00,44.4,44.1,30.31,South,180,0.0,-999.0,99,-99.99,,,0.00,Acu-Link.com,2013-10-04 09:01:00,
2013-10-04 02:16:00,43.9,43.6,30.32,South,180,0.0,-999.0,99,-99.99,,,0.00,Acu-Link.com,2013-10-04 09:16:00,
2013-10-04 02:31:00,43.9,43.6,30.32,South,180,0.0,-999.0,99,-99.99,,,0.00,Acu-Link.com,2013-10-04 09:31:00,
2013-10-04 02:47:00,43.9,43.6,30.33,South,180,0.0,-999.0,99,-99.99,,,0.00,Acu-Link.com,2013-10-04 09:47:00,
2013-10-04 03:02:00,43.7,43.4,30.33,South,180,0.0,-999.0,99,-99.99,,,0.00,Acu-Link.com,2013-10-04 10:02:00,
2013-10-04 03:17:00,43.2,42.9,30.33,South,180,0.0,-999.0,99,-99.99,,,0.00,Acu-Link.com,2013-10-04 10:17:00,
2013-10-04 03:33:00,43.2,42.9,30.33,South,180,0.0,-999.0,99,-99.99,,,0.00,Acu-Link.com,2013-10-04 10:33:00,
2013-10-04 03:48:00,43.7,43.4,30.33,South,180,0.0,-999.0,99,-99.99,,,0.00,Acu-Link.com,2013-10-04 10:48:00,
2013-10-04 04:04:00,43.7,43.4,30.32,ENE,67,0.0,-999.0,99,-99.99,,,0.00,Acu-Link.com,2013-10-04 11:04:00,
2013-10-04 04:19:00,43.5,43.2,30.32,South,180,0.0,-999.0,99,-99.99,,,0.00,Acu-Link.com,2013-10-04 11:19:00,
2013-10-04 04:34:00,43.0,42.7,30.32,South,180,0.0,-999.0,99,-99.99,,,0.00,Acu-Link.com,2013-10-04 11:34:00,
2013-10-04 04:49:00,43.0,42.7,30.32,SSE,157,0.0,-999.0,99,-99.99,,,0.00,Acu-Link.com,2013-10-04 11:49:00,
2013-10-04 05:05:00,43.5,43.2,30.32,SSW,202,0.0,-999.0,99,-99.99,,,0.00,Acu-Link.com,2013-10-04 12:05:00,
2013-10-04 05:20:00,44.1,43.8,30.33,South,180,0.0,-999.0,99,-99.99,,,0.00,Acu-Link.com,2013-10-04 12:20:00,
2013-10-04 05:36:00,44.4,44.1,30.33,South,180,0.0,-999.0,99,-99.99,,,0.00,Acu-Link.com,2013-10-04 12:36:00,
2013-10-04 05:52:00,44.8,44.5,30.33,WSW,247,1.1,-999.0,99,-99.99,,,0.00,Acu-Link.com,2013-10-04 12:52:00,
2013-10-04 06:07:00,44.8,44.5,30.33,East,90,0.0,-999.0,99,-99.99,,,0.00,Acu-Link.com,2013-10-04 13:07:00,
2013-10-04 06:22:00,44.8,44.5,30.32,SSE,157,0.0,-999.0,99,-99.99,,,0.00,Acu-Link.com,2013-10-04 13:22:00,
2013-10-04 06:37:00,44.8,44.5,30.33,SW,225,0.0,-999.0,99,-99.99,,,0.00,Acu-Link.com,2013-10-04 13:37:00,
2013-10-04 06:53:00,44.2,43.9,30.34,West,270,0.0,-999.0,99,-99.99,,,0.00,Acu-Link.com,2013-10-04 13:53:00,
2013-10-04 07:08:00,44.2,43.9,30.33,WSW,247,0.0,-999.0,99,-99.99,,,0.00,Acu-Link.com,2013-10-04 14:08:00,
2013-10-04 07:24:00,44.2,43.9,30.33,West,270,0.0,-999.0,99,-99.99,,,0.00,Acu-Link.com,2013-10-04 14:24:00,
2013-10-04 07:39:00,44.2,43.9,30.34,WNW,292,0.0,-999.0,99,-99.99,,,0.00,Acu-Link.com,2013-10-04 14:39:00,
2013-10-04 07:54:00,44.6,44.3,30.34,SE,135,0.0,-999.0,99,-99.99,,,0.00,Acu-Link.com,2013-10-04 14:54:00,
2013-10-04 08:10:00,45.0,44.7,30.33,WNW,292,0.0,-999.0,99,-99.99,,,0.00,Acu-Link.com,2013-10-04 15:10:00,
2013-10-04 08:25:00,45.1,44.8,30.33,NNW,337,0.0,-999.0,99,-99.99,,,0.00,Acu-Link.com,2013-10-04 15:25:00,
2013-10-04 08:40:00,45.7,45.4,30.34,West,270,1.1,-999.0,99,-99.99,,,0.00,Acu-Link.com,2013-10-04 15:40:00,
2013-10-04 08:56:00,45.7,45.4,30.33,South,180,0.0,-999.0,99,-99.99,,,0.00,Acu-Link.com,2013-10-04 15:56:00,
2013-10-04 09:11:00,46.2,45.9,30.34,SSE,157,0.0,-999.0,99,-99.99,,,0.00,Acu-Link.com,2013-10-04 16:11:00,
2013-10-04 09:26:00,46.4,46.1,30.34,South,180,0.0,-999.0,99,-99.99,,,0.00,Acu-Link.com,2013-10-04 16:26:00,
2013-10-04 09:42:00,46.6,46.3,30.34,SSW,202,0.0,-999.0,99,-99.99,,,0.00,Acu-Link.com,2013-10-04 16:42:00,
2013-10-04 09:57:00,46.6,46.3,30.34,SW,225,0.0,-999.0,99,-99.99,,,0.00,Acu-Link.com,2013-10-04 16:57:00,
2013-10-04 10:12:00,47.1,46.8,30.34,SSE,157,0.0,-999.0,99,-99.99,,,0.00,Acu-Link.com,2013-10-04 17:12:00,
2013-10-04 10:27:00,47.7,47.4,30.34,WSW,247,0.0,-999.0,99,-99.99,,,0.00,Acu-Link.com,2013-10-04 17:27:00,
2013-10-04 11:13:00,48.4,48.1,30.34,SW,225,0.0,-999.0,99,-99.99,,,0.00,Acu-Link.com,2013-10-04 18:13:00,
2013-10-04 11:28:00,49.1,48.8,30.33,SSW,202,1.1,-999.0,99,-99.99,,,0.00,Acu-Link.com,2013-10-04 18:28:00,
2013-10-04 11:44:00,49.6,49.3,30.32,South,180,0.0,-999.0,99,-99.99,,,0.00,Acu-Link.com,2013-10-04 18:44:00,
2013-10-04 11:59:00,49.8,49.3,30.32,SSW,202,1.1,-999.0,98,-99.99,,,0.00,Acu-Link.com,2013-10-04 18:59:00,
2013-10-04 12:15:00,50.5,49.4,30.31,West,270,2.2,-999.0,96,-99.99,,,0.00,Acu-Link.com,2013-10-04 19:15:00,
2013-10-04 12:30:00,50.0,49.5,30.32,South,180,1.1,-999.0,98,-99.99,,,0.00,Acu-Link.com,2013-10-04 19:30:00,
2013-10-04 12:46:00,52.0,50.0,30.32,SSW,202,0.0,-999.0,93,-99.99,,,0.00,Acu-Link.com,2013-10-04 19:46:00,
2013-10-04 13:01:00,53.1,50.5,30.31,WSW,247,2.2,-999.0,91,-99.99,,,0.00,Acu-Link.com,2013-10-04 20:01:00,
2013-10-04 13:16:00,54.9,49.8,30.30,South,180,1.7,-999.0,83,-99.99,,,0.00,Acu-Link.com,2013-10-04 20:16:00,
2013-10-04 13:31:00,55.0,48.6,30.30,ENE,67,3.2,-999.0,79,-99.99,,,0.00,Acu-Link.com,2013-10-04 20:31:00,
2013-10-04 13:47:00,55.4,47.6,30.28,ESE,112,2.2,-999.0,75,-99.99,,,0.00,Acu-Link.com,2013-10-04 20:47:00,
2013-10-04 14:02:00,56.5,47.9,30.28,ESE,112,1.7,-999.0,73,-99.99,,,0.00,Acu-Link.com,2013-10-04 21:02:00,
2013-10-04 14:17:00,55.9,49.8,30.27,ESE,112,2.2,-999.0,80,-99.99,,,0.00,Acu-Link.com,2013-10-04 21:17:00,
2013-10-04 14:34:00,56.8,50.0,30.27,ESE,112,0.0,-999.0,78,-99.99,,,0.00,Acu-Link.com,2013-10-04 21:34:00,
2013-10-04 14:49:00,56.7,51.9,30.27,SE,135,0.0,-999.0,84,-99.99,,,0.00,Acu-Link.com,2013-10-04 21:49:00,
2013-10-04 15:04:00,57.4,51.6,30.26,East,90,0.0,-999.0,81,-99.99,,,0.00,Acu-Link.com,2013-10-04 22:04:00,
2013-10-04 15:19:00,57.7,50.9,30.25,NW,315,0.0,-999.0,78,-99.99,,,0.00,Acu-Link.com,2013-10-04 22:19:00,
2013-10-04 15:35:00,59.5,53.3,30.25,WSW,247,0.0,-999.0,80,-99.99,,,0.00,Acu-Link.com,2013-10-04 22:35:00,
2013-10-04 15:50:00,59.9,52.0,30.25,West,270,0.0,-999.0,75,-99.99,,,0.00,Acu-Link.com,2013-10-04 22:50:00,
2013-10-04 16:06:00,59.0,52.5,30.25,SW,225,0.0,-999.0,79,-99.99,,,0.00,Acu-Link.com,2013-10-04 23:06:00,
2013-10-04 16:21:00,58.3,53.8,30.24,East,90,0.0,-999.0,85,-99.99,,,0.00,Acu-Link.com,2013-10-04 23:21:00,
2013-10-04 16:36:00,56.8,51.4,30.24,South,180,0.0,-999.0,82,-99.99,,,0.00,Acu-Link.com,2013-10-04 23:36:00,
2013-10-04 16:51:00,56.3,51.5,30.23,ESE,112,0.0,-999.0,84,-99.99,,,0.00,Acu-Link.com,2013-10-04 23:51:00,
2013-10-04 17:07:00,55.8,51.0,30.23,ESE,112,0.0,-999.0,84,-99.99,,,0.00,Acu-Link.com,2013-10-05 00:07:00,
2013-10-04 17:22:00,54.9,50.2,30.23,SSW,202,0.0,-999.0,84,-99.99,,,0.00,Acu-Link.com,2013-10-05 00:22:00,
2013-10-04 17:37:00,54.1,50.3,30.23,ESE,112,0.0,-999.0,87,-99.99,,,0.00,Acu-Link.com,2013-10-05 00:37:00,
2013-10-04 17:52:00,53.2,50.0,30.23,ESE,112,0.0,-999.0,89,-99.99,,,0.00,Acu-Link.com,2013-10-05 00:52:00,
2013-10-04 18:08:00,52.5,49.7,30.23,SSE,157,0.0,-999.0,90,-99.99,,,0.00,Acu-Link.com,2013-10-05 01:08:00,
2013-10-04 18:23:00,51.8,49.0,30.23,West,270,0.0,-999.0,90,-99.99,,,0.00,Acu-Link.com,2013-10-05 01:23:00,
2013-10-04 18:38:00,51.8,49.0,30.23,West,270,0.0,-999.0,90,-99.99,,,0.00,Acu-Link.com,2013-10-05 01:38:00,
2013-10-04 18:54:00,51.8,49.0,30.23,SSW,202,0.0,-999.0,90,-99.99,,,0.00,Acu-Link.com,2013-10-05 01:54:00,
2013-10-04 19:09:00,51.3,48.8,30.22,West,270,0.0,-999.0,91,-99.99,,,0.00,Acu-Link.com,2013-10-05 02:09:00,
2013-10-04 19:24:00,50.7,48.5,30.22,WNW,292,0.0,-999.0,92,-99.99,,,0.00,Acu-Link.com,2013-10-05 02:24:00,
2013-10-04 19:40:00,50.4,47.9,30.23,WSW,247,0.0,-999.0,91,-99.99,,,0.00,Acu-Link.com,2013-10-05 02:40:00,
2013-10-04 19:55:00,50.5,47.7,30.22,NNW,337,0.0,-999.0,90,-99.99,,,0.00,Acu-Link.com,2013-10-05 02:55:00,
2013-10-04 20:10:00,50.5,47.7,30.22,WSW,247,0.0,-999.0,90,-99.99,,,0.00,Acu-Link.com,2013-10-05 03:10:00,
2013-10-04 20:25:00,50.5,47.7,30.22,WNW,292,0.0,-999.0,90,-99.99,,,0.00,Acu-Link.com,2013-10-05 03:25:00,
2013-10-04 20:40:00,50.5,48.0,30.22,SSE,157,0.0,-999.0,91,-99.99,,,0.00,Acu-Link.com,2013-10-05 03:40:00,
2013-10-04 20:55:00,49.8,47.6,30.22,SW,225,0.0,-999.0,92,-99.99,,,0.00,Acu-Link.com,2013-10-05 03:55:00,
2013-10-04 21:11:00,49.3,47.4,30.22,ESE,112,0.0,-999.0,93,-99.99,,,0.00,Acu-Link.com,2013-10-05 04:11:00,
2013-10-04 21:26:00,48.7,47.3,30.22,ENE,67,0.0,-999.0,95,-99.99,,,0.00,Acu-Link.com,2013-10-05 04:26:00,
2013-10-04 21:42:00,48.0,46.9,30.22,West,270,0.0,-999.0,96,-99.99,,,0.00,Acu-Link.com,2013-10-05 04:42:00,
2013-10-04 21:57:00,47.5,46.4,30.22,WNW,292,0.0,-999.0,96,-99.99,,,0.00,Acu-Link.com,2013-10-05 04:57:00,
2013-10-04 22:13:00,47.7,47.4,30.22,East,90,0.0,-999.0,99,-99.99,,,0.00,Acu-Link.com,2013-10-05 05:13:00,
2013-10-04 22:29:00,47.7,47.4,30.21,ESE,112,0.0,-999.0,99,-99.99,,,0.00,Acu-Link.com,2013-10-05 05:29:00,
2013-10-04 22:45:00,47.1,46.8,30.22,ESE,112,0.0,-999.0,99,-99.99,,,0.00,Acu-Link.com,2013-10-05 05:45:00,
2013-10-04 23:01:00,47.1,46.8,30.21,ESE,112,0.0,-999.0,99,-99.99,,,0.00,Acu-Link.com,2013-10-05 06:01:00,
2013-10-04 23:17:00,46.6,46.3,30.21,ESE,112,0.0,-999.0,99,-99.99,,,0.00,Acu-Link.com,2013-10-05 06:17:00,
2013-10-04 23:32:00,46.6,46.3,30.21,ESE,112,0.0,-999.0,99,-99.99,,,0.00,Acu-Link.com,2013-10-05 06:32:00,
2013-10-04 23:47:00,46.6,46.3,30.21,ESE,112,0.0,-999.0,99,-99.99,,,0.00,Acu-Link.com,2013-10-05 06:47:00,